sensor_id;sensor_type;location;lat;lon;timestamp;temperature;humidity
68177;DHT22;56478;50.982;7.032;2022-10-16T00:00:53;14.84;88.68
68177;DHT22;56478;50.982;7.032;2022-10-16T00:03:18;14.81;88.82
68177;DHT22;56478;50.982;7.032;2022-10-16T00:05:44;14.72;88.80
68177;DHT22;56478;50.982;7.032;2022-10-16T00:08:13;14.68;88.94
68177;DHT22;56478;50.982;7.032;2022-10-16T00:10:39;14.63;89.00
68177;DHT22;56478;50.982;7.032;2022-10-16T00:13:05;14.65;89.29
68177;DHT22;56478;50.982;7.032;2022-10-16T00:15:37;14.63;89.17
68177;DHT22;56478;50.982;7.032;2022-10-16T00:18:05;14.63;89.26
68177;DHT22;56478;50.982;7.032;2022-10-16T00:20:34;14.65;89.06
68177;DHT22;56478;50.982;7.032;2022-10-16T00:22:59;14.78;88.09
68177;DHT22;56478;50.982;7.032;2022-10-16T00:25:25;14.75;88.27
68177;DHT22;56478;50.982;7.032;2022-10-16T00:27:50;14.71;88.55
68177;DHT22;56478;50.982;7.032;2022-10-16T00:30:16;14.64;88.62
68177;DHT22;56478;50.982;7.032;2022-10-16T00:32:41;14.58;88.61
68177;DHT22;56478;50.982;7.032;2022-10-16T00:35:07;14.54;88.87
68177;DHT22;56478;50.982;7.032;2022-10-16T00:37:32;14.54;89.04
68177;DHT22;56478;50.982;7.032;2022-10-16T00:39:58;14.52;88.95
68177;DHT22;56478;50.982;7.032;2022-10-16T00:42:24;14.60;88.08
68177;DHT22;56478;50.982;7.032;2022-10-16T00:47:30;14.58;88.49
68177;DHT22;56478;50.982;7.032;2022-10-16T00:50:10;14.58;88.12
68177;DHT22;56478;50.982;7.032;2022-10-16T00:52:36;14.56;88.15
68177;DHT22;56478;50.982;7.032;2022-10-16T00:55:05;14.48;88.59
68177;DHT22;56478;50.982;7.032;2022-10-16T00:57:32;14.50;88.09
68177;DHT22;56478;50.982;7.032;2022-10-16T00:59:57;14.51;87.77
68177;DHT22;56478;50.982;7.032;2022-10-16T01:02:24;14.58;87.45
68177;DHT22;56478;50.982;7.032;2022-10-16T01:04:52;14.58;87.37
68177;DHT22;56478;50.982;7.032;2022-10-16T01:10:26;14.56;87.40
68177;DHT22;56478;50.982;7.032;2022-10-16T01:15:59;14.43;87.91
68177;DHT22;56478;50.982;7.032;2022-10-16T01:21:06;14.51;87.27
68177;DHT22;56478;50.982;7.032;2022-10-16T01:26:32;14.25;88.85
68177;DHT22;56478;50.982;7.032;2022-10-16T01:29:18;14.20;88.71
68177;DHT22;56478;50.982;7.032;2022-10-16T01:31:49;14.22;88.97
68177;DHT22;56478;50.982;7.032;2022-10-16T01:34:22;14.22;88.28
68177;DHT22;56478;50.982;7.032;2022-10-16T01:36:56;14.26;88.22
68177;DHT22;56478;50.982;7.032;2022-10-16T01:39:26;14.23;88.34
68177;DHT22;56478;50.982;7.032;2022-10-16T01:42:18;14.27;88.03
68177;DHT22;56478;50.982;7.032;2022-10-16T01:44:47;14.30;88.16
68177;DHT22;56478;50.982;7.032;2022-10-16T01:47:14;14.26;88.71
68177;DHT22;56478;50.982;7.032;2022-10-16T01:49:41;14.22;88.69
68177;DHT22;56478;50.982;7.032;2022-10-16T01:52:12;14.17;88.77
68177;DHT22;56478;50.982;7.032;2022-10-16T01:54:42;14.17;88.47
68177;DHT22;56478;50.982;7.032;2022-10-16T01:57:10;14.20;88.75
68177;DHT22;56478;50.982;7.032;2022-10-16T01:59:40;14.15;88.66
68177;DHT22;56478;50.982;7.032;2022-10-16T02:02:09;14.01;89.41
68177;DHT22;56478;50.982;7.032;2022-10-16T02:04:43;14.06;89.25
68177;DHT22;56478;50.982;7.032;2022-10-16T02:07:09;14.12;88.80
68177;DHT22;56478;50.982;7.032;2022-10-16T02:09:35;14.17;88.69
68177;DHT22;56478;50.982;7.032;2022-10-16T02:12:08;14.25;88.40
68177;DHT22;56478;50.982;7.032;2022-10-16T02:14:38;14.25;88.42
68177;DHT22;56478;50.982;7.032;2022-10-16T02:17:15;14.26;88.33
68177;DHT22;56478;50.982;7.032;2022-10-16T02:19:42;14.27;88.51
68177;DHT22;56478;50.982;7.032;2022-10-16T02:22:16;14.25;88.73
68177;DHT22;56478;50.982;7.032;2022-10-16T02:24:54;14.38;88.14
68177;DHT22;56478;50.982;7.032;2022-10-16T02:30:24;14.37;87.78
68177;DHT22;56478;50.982;7.032;2022-10-16T02:32:51;14.41;87.66
68177;DHT22;56478;50.982;7.032;2022-10-16T02:35:19;14.44;88.22
68177;DHT22;56478;50.982;7.032;2022-10-16T02:37:46;14.44;88.30
68177;DHT22;56478;50.982;7.032;2022-10-16T02:40:13;14.47;87.95
68177;DHT22;56478;50.982;7.032;2022-10-16T02:42:39;14.43;88.41
68177;DHT22;56478;50.982;7.032;2022-10-16T02:45:07;14.37;88.38
68177;DHT22;56478;50.982;7.032;2022-10-16T02:47:33;14.52;87.78
68177;DHT22;56478;50.982;7.032;2022-10-16T02:49:59;14.57;87.61
68177;DHT22;56478;50.982;7.032;2022-10-16T02:52:25;14.65;87.19
68177;DHT22;56478;50.982;7.032;2022-10-16T02:54:50;14.71;87.01
68177;DHT22;56478;50.982;7.032;2022-10-16T02:57:17;14.67;87.02
68177;DHT22;56478;50.982;7.032;2022-10-16T02:59:43;14.63;88.16
68177;DHT22;56478;50.982;7.032;2022-10-16T03:02:09;14.63;87.83
68177;DHT22;56478;50.982;7.032;2022-10-16T03:04:34;14.61;87.60
68177;DHT22;56478;50.982;7.032;2022-10-16T03:07:00;14.64;87.35
68177;DHT22;56478;50.982;7.032;2022-10-16T03:09:25;14.67;86.83
68177;DHT22;56478;50.982;7.032;2022-10-16T03:11:51;14.63;87.31
68177;DHT22;56478;50.982;7.032;2022-10-16T03:14:17;14.56;87.47
68177;DHT22;56478;50.982;7.032;2022-10-16T03:16:43;14.51;87.63
68177;DHT22;56478;50.982;7.032;2022-10-16T03:19:08;14.45;87.89
68177;DHT22;56478;50.982;7.032;2022-10-16T03:21:34;14.48;87.66
68177;DHT22;56478;50.982;7.032;2022-10-16T03:23:59;14.43;88.02
68177;DHT22;56478;50.982;7.032;2022-10-16T03:26:25;14.41;87.67
68177;DHT22;56478;50.982;7.032;2022-10-16T03:28:50;14.37;87.91
68177;DHT22;56478;50.982;7.032;2022-10-16T03:31:15;14.32;88.30
68177;DHT22;56478;50.982;7.032;2022-10-16T03:33:41;14.25;88.94
68177;DHT22;56478;50.982;7.032;2022-10-16T03:36:07;14.26;88.72
68177;DHT22;56478;50.982;7.032;2022-10-16T03:38:32;14.29;88.50
68177;DHT22;56478;50.982;7.032;2022-10-16T03:40:58;14.38;87.95
68177;DHT22;56478;50.982;7.032;2022-10-16T03:43:23;14.32;88.22
68177;DHT22;56478;50.982;7.032;2022-10-16T03:45:50;14.36;88.11
68177;DHT22;56478;50.982;7.032;2022-10-16T03:48:17;14.34;88.23
68177;DHT22;56478;50.982;7.032;2022-10-16T03:50:42;14.33;88.44
68177;DHT22;56478;50.982;7.032;2022-10-16T03:53:08;14.29;88.66
68177;DHT22;56478;50.982;7.032;2022-10-16T03:55:34;14.32;88.55
68177;DHT22;56478;50.982;7.032;2022-10-16T03:58:00;14.33;88.58
68177;DHT22;56478;50.982;7.032;2022-10-16T04:00:26;14.34;88.73
68177;DHT22;56478;50.982;7.032;2022-10-16T04:02:51;14.32;88.96
68177;DHT22;56478;50.982;7.032;2022-10-16T04:05:17;14.27;88.81
68177;DHT22;56478;50.982;7.032;2022-10-16T04:07:42;14.30;88.58
68177;DHT22;56478;50.982;7.032;2022-10-16T04:10:08;14.36;88.63
68177;DHT22;56478;50.982;7.032;2022-10-16T04:12:33;14.41;88.25
68177;DHT22;56478;50.982;7.032;2022-10-16T04:14:59;14.41;88.40
68177;DHT22;56478;50.982;7.032;2022-10-16T04:17:24;14.41;88.04
68177;DHT22;56478;50.982;7.032;2022-10-16T04:19:50;14.38;88.16
68177;DHT22;56478;50.982;7.032;2022-10-16T04:22:15;14.41;88.00
68177;DHT22;56478;50.982;7.032;2022-10-16T04:24:41;14.44;87.64
68177;DHT22;56478;50.982;7.032;2022-10-16T04:27:06;14.37;88.12
68177;DHT22;56478;50.982;7.032;2022-10-16T04:29:32;14.40;88.07
68177;DHT22;56478;50.982;7.032;2022-10-16T04:31:57;14.47;87.56
68177;DHT22;56478;50.982;7.032;2022-10-16T04:34:23;14.44;87.55
68177;DHT22;56478;50.982;7.032;2022-10-16T04:36:48;14.41;87.81
68177;DHT22;56478;50.982;7.032;2022-10-16T04:39:17;14.43;87.62
68177;DHT22;56478;50.982;7.032;2022-10-16T04:41:42;14.36;87.86
68177;DHT22;56478;50.982;7.032;2022-10-16T04:44:08;14.37;87.60
68177;DHT22;56478;50.982;7.032;2022-10-16T04:46:33;14.30;88.27
68177;DHT22;56478;50.982;7.032;2022-10-16T04:48:59;14.26;88.10
68177;DHT22;56478;50.982;7.032;2022-10-16T04:51:24;14.27;87.78
68177;DHT22;56478;50.982;7.032;2022-10-16T04:53:51;14.22;88.38
68177;DHT22;56478;50.982;7.032;2022-10-16T04:56:16;14.22;88.18
68177;DHT22;56478;50.982;7.032;2022-10-16T04:58:42;14.23;88.37
68177;DHT22;56478;50.982;7.032;2022-10-16T05:01:07;14.26;88.08
68177;DHT22;56478;50.982;7.032;2022-10-16T05:03:33;14.22;87.98
68177;DHT22;56478;50.982;7.032;2022-10-16T05:05:59;14.26;88.03
68177;DHT22;56478;50.982;7.032;2022-10-16T05:08:25;14.29;87.75
68177;DHT22;56478;50.982;7.032;2022-10-16T05:10:50;14.32;87.62
68177;DHT22;56478;50.982;7.032;2022-10-16T05:13:16;14.26;88.49
68177;DHT22;56478;50.982;7.032;2022-10-16T05:15:41;14.19;88.43
68177;DHT22;56478;50.982;7.032;2022-10-16T05:18:08;14.19;88.56
68177;DHT22;56478;50.982;7.032;2022-10-16T05:20:34;14.16;88.53
68177;DHT22;56478;50.982;7.032;2022-10-16T05:22:59;14.17;89.04
68177;DHT22;56478;50.982;7.032;2022-10-16T05:25:25;14.20;88.78
68177;DHT22;56478;50.982;7.032;2022-10-16T05:27:50;14.25;88.69
68177;DHT22;56478;50.982;7.032;2022-10-16T05:30:17;14.26;87.97
68177;DHT22;56478;50.982;7.032;2022-10-16T05:32:50;14.23;88.24
68177;DHT22;56478;50.982;7.032;2022-10-16T05:35:16;14.22;88.27
68177;DHT22;56478;50.982;7.032;2022-10-16T05:37:42;14.25;88.45
68177;DHT22;56478;50.982;7.032;2022-10-16T05:40:09;14.23;88.03
68177;DHT22;56478;50.982;7.032;2022-10-16T05:42:34;14.19;88.23
68177;DHT22;56478;50.982;7.032;2022-10-16T05:45:00;14.12;88.75
68177;DHT22;56478;50.982;7.032;2022-10-16T05:47:26;14.13;88.85
68177;DHT22;56478;50.982;7.032;2022-10-16T05:49:51;14.16;88.20
68177;DHT22;56478;50.982;7.032;2022-10-16T05:52:17;14.17;87.97
68177;DHT22;56478;50.982;7.032;2022-10-16T05:54:43;14.09;88.45
68177;DHT22;56478;50.982;7.032;2022-10-16T05:57:08;14.08;88.38
68177;DHT22;56478;50.982;7.032;2022-10-16T05:59:34;14.05;89.03
68177;DHT22;56478;50.982;7.032;2022-10-16T06:01:59;14.02;88.99
68177;DHT22;56478;50.982;7.032;2022-10-16T06:04:25;13.91;89.07
68177;DHT22;56478;50.982;7.032;2022-10-16T06:06:50;13.79;89.23
68177;DHT22;56478;50.982;7.032;2022-10-16T06:09:16;13.78;89.52
68177;DHT22;56478;50.982;7.032;2022-10-16T06:11:42;13.74;89.68
68177;DHT22;56478;50.982;7.032;2022-10-16T06:14:08;13.75;89.61
68177;DHT22;56478;50.982;7.032;2022-10-16T06:16:35;13.72;89.64
68177;DHT22;56478;50.982;7.032;2022-10-16T06:19:02;13.68;89.75
68177;DHT22;56478;50.982;7.032;2022-10-16T06:21:29;13.64;89.82
68177;DHT22;56478;50.982;7.032;2022-10-16T06:23:56;13.65;89.90
68177;DHT22;56478;50.982;7.032;2022-10-16T06:26:24;13.70;89.72
68177;DHT22;56478;50.982;7.032;2022-10-16T06:28:50;13.71;89.64
68177;DHT22;56478;50.982;7.032;2022-10-16T06:31:16;13.74;89.50
68177;DHT22;56478;50.982;7.032;2022-10-16T06:33:42;13.82;88.82
68177;DHT22;56478;50.982;7.032;2022-10-16T06:36:10;13.86;88.81
68177;DHT22;56478;50.982;7.032;2022-10-16T06:38:37;13.97;88.73
68177;DHT22;56478;50.982;7.032;2022-10-16T06:41:03;14.02;88.80
68177;DHT22;56478;50.982;7.032;2022-10-16T06:43:30;14.10;88.37
68177;DHT22;56478;50.982;7.032;2022-10-16T06:46:00;14.25;88.11
68177;DHT22;56478;50.982;7.032;2022-10-16T06:48:27;14.40;87.52
68177;DHT22;56478;50.982;7.032;2022-10-16T06:50:59;14.48;87.01
68177;DHT22;56478;50.982;7.032;2022-10-16T06:53:27;14.67;86.26
68177;DHT22;56478;50.982;7.032;2022-10-16T06:55:52;14.91;85.22
68177;DHT22;56478;50.982;7.032;2022-10-16T06:58:18;15.03;85.02
68177;DHT22;56478;50.982;7.032;2022-10-16T07:00:44;15.12;84.41
68177;DHT22;56478;50.982;7.032;2022-10-16T07:03:10;15.13;84.43
68177;DHT22;56478;50.982;7.032;2022-10-16T07:05:42;15.18;84.30
68177;DHT22;56478;50.982;7.032;2022-10-16T07:08:08;15.24;84.35
68177;DHT22;56478;50.982;7.032;2022-10-16T07:10:34;15.14;84.92
68177;DHT22;56478;50.982;7.032;2022-10-16T07:13:00;15.34;84.22
68177;DHT22;56478;50.982;7.032;2022-10-16T07:15:26;15.51;83.49
68177;DHT22;56478;50.982;7.032;2022-10-16T07:17:52;15.65;83.24
68177;DHT22;56478;50.982;7.032;2022-10-16T07:20:18;15.91;82.85
68177;DHT22;56478;50.982;7.032;2022-10-16T07:22:43;16.60;80.73
68177;DHT22;56478;50.982;7.032;2022-10-16T07:25:09;16.75;80.00
68177;DHT22;56478;50.982;7.032;2022-10-16T07:27:35;16.71;79.65
68177;DHT22;56478;50.982;7.032;2022-10-16T07:30:00;16.41;80.48
68177;DHT22;56478;50.982;7.032;2022-10-16T07:32:26;16.38;80.61
68177;DHT22;56478;50.982;7.032;2022-10-16T07:34:52;16.31;81.30
68177;DHT22;56478;50.982;7.032;2022-10-16T07:37:18;16.45;80.81
68177;DHT22;56478;50.982;7.032;2022-10-16T07:39:43;16.52;80.81
68177;DHT22;56478;50.982;7.032;2022-10-16T07:42:09;16.60;80.94
68177;DHT22;56478;50.982;7.032;2022-10-16T07:44:34;17.12;79.14
68177;DHT22;56478;50.982;7.032;2022-10-16T07:47:00;18.24;75.26
68177;DHT22;56478;50.982;7.032;2022-10-16T07:49:25;17.81;76.60
68177;DHT22;56478;50.982;7.032;2022-10-16T07:51:51;18.17;75.29
68177;DHT22;56478;50.982;7.032;2022-10-16T07:54:16;19.30;71.99
68177;DHT22;56478;50.982;7.032;2022-10-16T07:56:42;20.39;68.49
68177;DHT22;56478;50.982;7.032;2022-10-16T07:59:07;21.67;64.11
68177;DHT22;56478;50.982;7.032;2022-10-16T08:01:33;22.25;62.30
68177;DHT22;56478;50.982;7.032;2022-10-16T08:03:59;22.55;60.49
68177;DHT22;56478;50.982;7.032;2022-10-16T08:06:24;23.11;57.86
68177;DHT22;56478;50.982;7.032;2022-10-16T08:08:50;22.82;60.15
68177;DHT22;56478;50.982;7.032;2022-10-16T08:11:16;22.87;59.79
68177;DHT22;56478;50.982;7.032;2022-10-16T08:13:41;25.38;53.21
68177;DHT22;56478;50.982;7.032;2022-10-16T08:16:07;25.83;50.78
68177;DHT22;56478;50.982;7.032;2022-10-16T08:18:35;25.58;52.38
68177;DHT22;56478;50.982;7.032;2022-10-16T08:21:01;26.83;47.69
68177;DHT22;56478;50.982;7.032;2022-10-16T08:23:27;27.02;47.41
68177;DHT22;56478;50.982;7.032;2022-10-16T08:25:53;28.55;43.33
68177;DHT22;56478;50.982;7.032;2022-10-16T08:28:19;28.67;43.70
68177;DHT22;56478;50.982;7.032;2022-10-16T08:30:45;29.39;42.39
68177;DHT22;56478;50.982;7.032;2022-10-16T08:33:11;29.26;41.99
68177;DHT22;56478;50.982;7.032;2022-10-16T08:35:36;28.28;43.88
68177;DHT22;56478;50.982;7.032;2022-10-16T08:38:06;26.09;49.23
68177;DHT22;56478;50.982;7.032;2022-10-16T08:40:33;25.58;50.71
68177;DHT22;56478;50.982;7.032;2022-10-16T08:48:50;26.76;48.73
68177;DHT22;56478;50.982;7.032;2022-10-16T08:51:33;27.35;46.42
68177;DHT22;56478;50.982;7.032;2022-10-16T08:54:05;28.42;44.15
68177;DHT22;56478;50.982;7.032;2022-10-16T08:56:31;26.88;45.12
68177;DHT22;56478;50.982;7.032;2022-10-16T08:58:58;27.38;44.62
68177;DHT22;56478;50.982;7.032;2022-10-16T09:01:28;28.33;42.61
68177;DHT22;56478;50.982;7.032;2022-10-16T09:07:18;29.25;40.73
68177;DHT22;56478;50.982;7.032;2022-10-16T09:12:37;29.15;39.50
68177;DHT22;56478;50.982;7.032;2022-10-16T09:18:20;30.06;37.65
68177;DHT22;56478;50.982;7.032;2022-10-16T09:21:13;29.94;37.68
68177;DHT22;56478;50.982;7.032;2022-10-16T09:23:41;29.12;37.16
68177;DHT22;56478;50.982;7.032;2022-10-16T09:26:11;29.88;37.18
68177;DHT22;56478;50.982;7.032;2022-10-16T09:28:37;30.08;37.12
68177;DHT22;56478;50.982;7.032;2022-10-16T09:31:03;30.99;34.88
68177;DHT22;56478;50.982;7.032;2022-10-16T09:33:33;30.88;34.57
68177;DHT22;56478;50.982;7.032;2022-10-16T09:35:59;30.83;36.03
68177;DHT22;56478;50.982;7.032;2022-10-16T09:38:29;30.00;35.67
68177;DHT22;56478;50.982;7.032;2022-10-16T09:41:22;30.26;35.71
68177;DHT22;56478;50.982;7.032;2022-10-16T09:43:59;29.57;35.94
68177;DHT22;56478;50.982;7.032;2022-10-16T09:49:25;29.87;36.15
68177;DHT22;56478;50.982;7.032;2022-10-16T09:52:05;30.49;35.69
68177;DHT22;56478;50.982;7.032;2022-10-16T09:54:31;30.21;36.33
68177;DHT22;56478;50.982;7.032;2022-10-16T09:57:07;31.36;34.89
68177;DHT22;56478;50.982;7.032;2022-10-16T09:59:33;30.85;34.84
68177;DHT22;56478;50.982;7.032;2022-10-16T10:02:04;30.84;35.00
68177;DHT22;56478;50.982;7.032;2022-10-16T10:04:57;31.40;34.67
68177;DHT22;56478;50.982;7.032;2022-10-16T10:07:27;31.26;33.71
68177;DHT22;56478;50.982;7.032;2022-10-16T10:09:55;31.50;33.54
68177;DHT22;56478;50.982;7.032;2022-10-16T10:12:28;32.16;33.46
68177;DHT22;56478;50.982;7.032;2022-10-16T10:15:12;31.05;34.31
68177;DHT22;56478;50.982;7.032;2022-10-16T10:17:47;30.08;34.30
68177;DHT22;56478;50.982;7.032;2022-10-16T10:22:54;30.83;33.60
68177;DHT22;56478;50.982;7.032;2022-10-16T10:25:44;29.22;36.25
68177;DHT22;56478;50.982;7.032;2022-10-16T10:33:30;28.23;38.14
68177;DHT22;56478;50.982;7.032;2022-10-16T10:55:31;24.62;44.67
68177;DHT22;56478;50.982;7.032;2022-10-16T10:58:15;24.84;44.57
68177;DHT22;56478;50.982;7.032;2022-10-16T11:06:28;24.24;45.50
68177;DHT22;56478;50.982;7.032;2022-10-16T11:09:02;24.22;44.98
68177;DHT22;56478;50.982;7.032;2022-10-16T11:11:34;23.76;45.94
68177;DHT22;56478;50.982;7.032;2022-10-16T11:16:31;23.51;49.52
68177;DHT22;56478;50.982;7.032;2022-10-16T11:25:11;23.70;47.26
68177;DHT22;56478;50.982;7.032;2022-10-16T11:27:47;23.98;46.79
68177;DHT22;56478;50.982;7.032;2022-10-16T11:30:30;24.26;47.11
68177;DHT22;56478;50.982;7.032;2022-10-16T11:35:41;24.62;45.50
68177;DHT22;56478;50.982;7.032;2022-10-16T11:41:00;23.84;46.69
68177;DHT22;56478;50.982;7.032;2022-10-16T11:43:38;23.77;46.40
68177;DHT22;56478;50.982;7.032;2022-10-16T11:46:16;24.18;45.81
68177;DHT22;56478;50.982;7.032;2022-10-16T11:48:49;23.97;46.58
68177;DHT22;56478;50.982;7.032;2022-10-16T11:51:42;23.74;45.42
68177;DHT22;56478;50.982;7.032;2022-10-16T11:54:34;23.96;46.42
68177;DHT22;56478;50.982;7.032;2022-10-16T11:57:12;24.20;44.97
68177;DHT22;56478;50.982;7.032;2022-10-16T11:59:46;24.20;44.30
68177;DHT22;56478;50.982;7.032;2022-10-16T12:07:36;24.53;46.32
68177;DHT22;56478;50.982;7.032;2022-10-16T12:10:18;24.36;45.97
68177;DHT22;56478;50.982;7.032;2022-10-16T12:12:44;24.38;44.84
68177;DHT22;56478;50.982;7.032;2022-10-16T12:15:30;24.42;47.20
68177;DHT22;56478;50.982;7.032;2022-10-16T12:17:57;24.20;46.11
68177;DHT22;56478;50.982;7.032;2022-10-16T12:20:31;24.05;44.96
68177;DHT22;56478;50.982;7.032;2022-10-16T12:23:02;24.04;44.74
68177;DHT22;56478;50.982;7.032;2022-10-16T12:25:31;24.08;44.24
68177;DHT22;56478;50.982;7.032;2022-10-16T12:28:02;24.10;46.57
68177;DHT22;56478;50.982;7.032;2022-10-16T12:30:31;24.35;47.04
68177;DHT22;56478;50.982;7.032;2022-10-16T12:33:06;24.77;44.41
68177;DHT22;56478;50.982;7.032;2022-10-16T12:35:44;24.52;44.56
68177;DHT22;56478;50.982;7.032;2022-10-16T12:38:26;24.46;45.27
68177;DHT22;56478;50.982;7.032;2022-10-16T12:41:01;24.33;43.39
68177;DHT22;56478;50.982;7.032;2022-10-16T12:43:46;24.73;42.95
68177;DHT22;56478;50.982;7.032;2022-10-16T12:48:40;24.14;44.65
68177;DHT22;56478;50.982;7.032;2022-10-16T12:54:15;23.60;48.81
68177;DHT22;56478;50.982;7.032;2022-10-16T13:08:11;22.48;47.88
68177;DHT22;56478;50.982;7.032;2022-10-16T13:16:56;23.01;49.00
68177;DHT22;56478;50.982;7.032;2022-10-16T13:30:22;23.03;47.60
68177;DHT22;56478;50.982;7.032;2022-10-16T13:32:55;22.77;47.92
68177;DHT22;56478;50.982;7.032;2022-10-16T13:35:27;22.70;47.96
68177;DHT22;56478;50.982;7.032;2022-10-16T13:40:51;22.77;48.79
68177;DHT22;56478;50.982;7.032;2022-10-16T13:43:24;22.93;47.19
68177;DHT22;56478;50.982;7.032;2022-10-16T13:48:43;22.55;51.72
68177;DHT22;56478;50.982;7.032;2022-10-16T13:51:16;22.72;48.68
68177;DHT22;56478;50.982;7.032;2022-10-16T13:53:43;22.74;48.99
68177;DHT22;56478;50.982;7.032;2022-10-16T13:56:15;22.57;49.65
68177;DHT22;56478;50.982;7.032;2022-10-16T13:58:41;22.35;50.52
68177;DHT22;56478;50.982;7.032;2022-10-16T14:01:28;22.10;51.44
68177;DHT22;56478;50.982;7.032;2022-10-16T14:04:01;21.87;52.27
68177;DHT22;56478;50.982;7.032;2022-10-16T14:06:27;21.77;52.47
68177;DHT22;56478;50.982;7.032;2022-10-16T14:09:01;21.52;53.45
68177;DHT22;56478;50.982;7.032;2022-10-16T14:11:27;21.49;54.20
68177;DHT22;56478;50.982;7.032;2022-10-16T14:13:54;21.52;53.65
68177;DHT22;56478;50.982;7.032;2022-10-16T14:16:21;21.46;54.15
68177;DHT22;56478;50.982;7.032;2022-10-16T14:19:00;21.49;54.01
68177;DHT22;56478;50.982;7.032;2022-10-16T14:21:26;21.53;54.39
68177;DHT22;56478;50.982;7.032;2022-10-16T14:23:52;21.60;54.13
68177;DHT22;56478;50.982;7.032;2022-10-16T14:26:21;21.46;54.55
68177;DHT22;56478;50.982;7.032;2022-10-16T14:28:48;21.34;55.18
68177;DHT22;56478;50.982;7.032;2022-10-16T14:33:50;21.23;55.98
68177;DHT22;56478;50.982;7.032;2022-10-16T14:36:16;21.21;56.31
68177;DHT22;56478;50.982;7.032;2022-10-16T14:41:15;21.28;56.01
68177;DHT22;56478;50.982;7.032;2022-10-16T14:43:42;21.25;57.21
68177;DHT22;56478;50.982;7.032;2022-10-16T14:46:20;21.23;58.15
68177;DHT22;56478;50.982;7.032;2022-10-16T14:48:49;21.30;57.55
68177;DHT22;56478;50.982;7.032;2022-10-16T14:51:17;21.39;56.77
68177;DHT22;56478;50.982;7.032;2022-10-16T14:53:42;21.27;59.11
68177;DHT22;56478;50.982;7.032;2022-10-16T14:56:16;21.37;57.68
68177;DHT22;56478;50.982;7.032;2022-10-16T14:58:42;21.41;57.47
68177;DHT22;56478;50.982;7.032;2022-10-16T15:01:10;21.39;57.88
68177;DHT22;56478;50.982;7.032;2022-10-16T15:03:37;21.31;57.87
68177;DHT22;56478;50.982;7.032;2022-10-16T15:06:03;21.21;58.31
68177;DHT22;56478;50.982;7.032;2022-10-16T15:08:28;21.10;59.12
68177;DHT22;56478;50.982;7.032;2022-10-16T15:10:54;21.00;58.94
68177;DHT22;56478;50.982;7.032;2022-10-16T15:13:20;20.98;59.41
68177;DHT22;56478;50.982;7.032;2022-10-16T15:15:48;20.97;59.41
68177;DHT22;56478;50.982;7.032;2022-10-16T15:18:16;20.97;59.82
68177;DHT22;56478;50.982;7.032;2022-10-16T15:20:50;20.87;60.13
68177;DHT22;56478;50.982;7.032;2022-10-16T15:23:18;20.86;60.53
68177;DHT22;56478;50.982;7.032;2022-10-16T15:25:49;20.73;61.69
68177;DHT22;56478;50.982;7.032;2022-10-16T15:28:15;20.71;62.03
68177;DHT22;56478;50.982;7.032;2022-10-16T15:30:42;20.82;61.18
68177;DHT22;56478;50.982;7.032;2022-10-16T15:33:13;20.77;61.32
68177;DHT22;56478;50.982;7.032;2022-10-16T15:35:39;20.62;62.26
68177;DHT22;56478;50.982;7.032;2022-10-16T15:38:04;20.62;62.47
68177;DHT22;56478;50.982;7.032;2022-10-16T15:40:30;20.68;62.12
68177;DHT22;56478;50.982;7.032;2022-10-16T15:42:55;20.65;62.27
68177;DHT22;56478;50.982;7.032;2022-10-16T15:45:21;20.56;62.66
68177;DHT22;56478;50.982;7.032;2022-10-16T15:47:47;20.52;62.92
68177;DHT22;56478;50.982;7.032;2022-10-16T15:50:14;20.45;63.57
68177;DHT22;56478;50.982;7.032;2022-10-16T15:52:41;20.41;63.94
68177;DHT22;56478;50.982;7.032;2022-10-16T15:55:11;20.32;64.41
68177;DHT22;56478;50.982;7.032;2022-10-16T15:57:37;20.35;63.97
68177;DHT22;56478;50.982;7.032;2022-10-16T16:00:11;20.27;64.50
68177;DHT22;56478;50.982;7.032;2022-10-16T16:02:37;20.22;64.76
68177;DHT22;56478;50.982;7.032;2022-10-16T16:05:03;20.20;64.87
68177;DHT22;56478;50.982;7.032;2022-10-16T16:07:32;20.07;65.57
68177;DHT22;56478;50.982;7.032;2022-10-16T16:09:59;19.92;66.25
68177;DHT22;56478;50.982;7.032;2022-10-16T16:12:25;19.76;66.99
68177;DHT22;56478;50.982;7.032;2022-10-16T16:14:50;19.72;67.30
68177;DHT22;56478;50.982;7.032;2022-10-16T16:17:16;19.70;67.64
68177;DHT22;56478;50.982;7.032;2022-10-16T16:19:42;19.63;68.13
68177;DHT22;56478;50.982;7.032;2022-10-16T16:22:07;19.55;68.63
68177;DHT22;56478;50.982;7.032;2022-10-16T16:24:33;19.52;69.00
68177;DHT22;56478;50.982;7.032;2022-10-16T16:26:58;19.49;69.23
68177;DHT22;56478;50.982;7.032;2022-10-16T16:29:24;19.44;69.73
68177;DHT22;56478;50.982;7.032;2022-10-16T16:31:49;19.39;70.06
68177;DHT22;56478;50.982;7.032;2022-10-16T16:34:15;19.34;70.56
68177;DHT22;56478;50.982;7.032;2022-10-16T16:36:40;19.27;70.85
68177;DHT22;56478;50.982;7.032;2022-10-16T16:39:07;19.27;70.96
68177;DHT22;56478;50.982;7.032;2022-10-16T16:41:33;19.27;71.09
68177;DHT22;56478;50.982;7.032;2022-10-16T16:44:04;19.24;71.29
68177;DHT22;56478;50.982;7.032;2022-10-16T16:46:31;19.24;71.38
68177;DHT22;56478;50.982;7.032;2022-10-16T16:48:58;19.25;71.55
68177;DHT22;56478;50.982;7.032;2022-10-16T16:51:24;19.17;71.84
68177;DHT22;56478;50.982;7.032;2022-10-16T16:53:52;19.15;72.02
68177;DHT22;56478;50.982;7.032;2022-10-16T16:56:19;19.18;71.92
68177;DHT22;56478;50.982;7.032;2022-10-16T16:58:46;19.17;72.01
68177;DHT22;56478;50.982;7.032;2022-10-16T17:01:12;19.10;72.47
68177;DHT22;56478;50.982;7.032;2022-10-16T17:03:38;19.14;72.36
68177;DHT22;56478;50.982;7.032;2022-10-16T17:06:05;19.15;72.34
68177;DHT22;56478;50.982;7.032;2022-10-16T17:08:32;19.13;72.60
68177;DHT22;56478;50.982;7.032;2022-10-16T17:10:58;19.08;72.79
68177;DHT22;56478;50.982;7.032;2022-10-16T17:13:25;19.07;72.92
68177;DHT22;56478;50.982;7.032;2022-10-16T17:15:51;19.08;72.91
68177;DHT22;56478;50.982;7.032;2022-10-16T17:18:19;19.02;73.20
68177;DHT22;56478;50.982;7.032;2022-10-16T17:20:45;19.00;73.40
68177;DHT22;56478;50.982;7.032;2022-10-16T17:23:11;18.97;73.64
68177;DHT22;56478;50.982;7.032;2022-10-16T17:25:38;19.03;73.73
68177;DHT22;56478;50.982;7.032;2022-10-16T17:28:04;18.99;74.07
68177;DHT22;56478;50.982;7.032;2022-10-16T17:30:30;18.96;74.24
68177;DHT22;56478;50.982;7.032;2022-10-16T17:32:56;18.97;74.05
68177;DHT22;56478;50.982;7.032;2022-10-16T17:35:21;19.06;73.90
68177;DHT22;56478;50.982;7.032;2022-10-16T17:37:47;19.08;73.81
68177;DHT22;56478;50.982;7.032;2022-10-16T17:40:12;19.03;73.90
68177;DHT22;56478;50.982;7.032;2022-10-16T17:42:38;19.00;74.11
68177;DHT22;56478;50.982;7.032;2022-10-16T17:45:04;19.02;74.09
68177;DHT22;56478;50.982;7.032;2022-10-16T17:47:29;19.00;74.30
68177;DHT22;56478;50.982;7.032;2022-10-16T17:49:55;18.95;74.52